sensor_id;sensor_type;location;lat;lon;timestamp;temperature;humidity
25963;DHT22;13760;52.588;13.406;2023-04-25T00:02:11;8.90;99.90
25963;DHT22;13760;52.588;13.406;2023-04-25T00:04:37;8.90;99.90
25963;DHT22;13760;52.588;13.406;2023-04-25T00:07:03;8.90;99.90
25963;DHT22;13760;52.588;13.406;2023-04-25T00:09:29;8.90;99.90
25963;DHT22;13760;52.588;13.406;2023-04-25T00:11:54;8.90;99.90
25963;DHT22;13760;52.588;13.406;2023-04-25T00:14:20;8.90;99.90
25963;DHT22;13760;52.588;13.406;2023-04-25T00:16:46;9.00;99.90
25963;DHT22;13760;52.588;13.406;2023-04-25T00:19:11;8.90;99.90
25963;DHT22;13760;52.588;13.406;2023-04-25T00:21:38;9.00;99.90
25963;DHT22;13760;52.588;13.406;2023-04-25T00:24:06;9.00;99.90
25963;DHT22;13760;52.588;13.406;2023-04-25T00:26:34;8.90;99.90
25963;DHT22;13760;52.588;13.406;2023-04-25T00:29:00;8.90;99.90
25963;DHT22;13760;52.588;13.406;2023-04-25T00:31:26;8.90;99.90
25963;DHT22;13760;52.588;13.406;2023-04-25T00:33:51;8.90;99.90
25963;DHT22;13760;52.588;13.406;2023-04-25T00:36:18;8.90;99.90
25963;DHT22;13760;52.588;13.406;2023-04-25T00:38:44;8.90;99.90
25963;DHT22;13760;52.588;13.406;2023-04-25T00:41:10;9.00;99.90
25963;DHT22;13760;52.588;13.406;2023-04-25T00:43:36;9.00;99.90
25963;DHT22;13760;52.588;13.406;2023-04-25T00:46:02;9.00;99.90
25963;DHT22;13760;52.588;13.406;2023-04-25T00:48:28;8.90;99.90
25963;DHT22;13760;52.588;13.406;2023-04-25T00:50:55;8.90;99.90
25963;DHT22;13760;52.588;13.406;2023-04-25T00:53:23;8.90;99.90
25963;DHT22;13760;52.588;13.406;2023-04-25T00:55:49;8.90;99.90
25963;DHT22;13760;52.588;13.406;2023-04-25T00:58:19;8.90;99.90
25963;DHT22;13760;52.588;13.406;2023-04-25T01:00:46;8.90;99.90
25963;DHT22;13760;52.588;13.406;2023-04-25T01:03:16;8.80;99.90
25963;DHT22;13760;52.588;13.406;2023-04-25T01:05:43;8.80;99.90
25963;DHT22;13760;52.588;13.406;2023-04-25T01:08:09;8.80;99.90
25963;DHT22;13760;52.588;13.406;2023-04-25T01:10:35;8.80;99.90
25963;DHT22;13760;52.588;13.406;2023-04-25T01:13:01;8.80;99.90
25963;DHT22;13760;52.588;13.406;2023-04-25T01:15:27;8.70;99.90
25963;DHT22;13760;52.588;13.406;2023-04-25T01:17:52;8.70;99.90
25963;DHT22;13760;52.588;13.406;2023-04-25T01:20:21;8.70;99.90
25963;DHT22;13760;52.588;13.406;2023-04-25T01:22:48;8.80;99.90
25963;DHT22;13760;52.588;13.406;2023-04-25T01:25:14;8.80;99.90
25963;DHT22;13760;52.588;13.406;2023-04-25T01:27:40;8.80;99.90
25963;DHT22;13760;52.588;13.406;2023-04-25T01:30:06;8.80;99.90
25963;DHT22;13760;52.588;13.406;2023-04-25T01:32:33;8.70;99.90
25963;DHT22;13760;52.588;13.406;2023-04-25T01:35:10;8.80;99.90
25963;DHT22;13760;52.588;13.406;2023-04-25T01:37:40;8.70;99.90
25963;DHT22;13760;52.588;13.406;2023-04-25T01:40:08;8.80;99.90
25963;DHT22;13760;52.588;13.406;2023-04-25T01:42:35;8.80;99.90
25963;DHT22;13760;52.588;13.406;2023-04-25T01:45:01;8.80;99.90
25963;DHT22;13760;52.588;13.406;2023-04-25T01:47:27;8.70;99.90
25963;DHT22;13760;52.588;13.406;2023-04-25T01:49:53;8.70;99.90
25963;DHT22;13760;52.588;13.406;2023-04-25T01:52:18;8.80;99.90
25963;DHT22;13760;52.588;13.406;2023-04-25T01:54:44;8.80;99.90
25963;DHT22;13760;52.588;13.406;2023-04-25T01:57:13;8.70;99.90
25963;DHT22;13760;52.588;13.406;2023-04-25T01:59:39;8.70;99.90
25963;DHT22;13760;52.588;13.406;2023-04-25T02:02:06;8.70;99.90
25963;DHT22;13760;52.588;13.406;2023-04-25T02:04:32;8.80;99.90
25963;DHT22;13760;52.588;13.406;2023-04-25T02:06:57;8.70;99.90
25963;DHT22;13760;52.588;13.406;2023-04-25T02:09:23;8.80;99.90
25963;DHT22;13760;52.588;13.406;2023-04-25T02:11:49;8.70;99.90
25963;DHT22;13760;52.588;13.406;2023-04-25T02:14:15;8.70;99.90
25963;DHT22;13760;52.588;13.406;2023-04-25T02:16:40;8.70;99.90
25963;DHT22;13760;52.588;13.406;2023-04-25T02:19:06;8.70;99.90
25963;DHT22;13760;52.588;13.406;2023-04-25T02:21:32;8.70;99.90
25963;DHT22;13760;52.588;13.406;2023-04-25T02:23:57;8.70;99.90
25963;DHT22;13760;52.588;13.406;2023-04-25T02:26:23;8.70;99.90
25963;DHT22;13760;52.588;13.406;2023-04-25T02:28:49;8.70;99.90
25963;DHT22;13760;52.588;13.406;2023-04-25T02:31:15;8.60;99.90
25963;DHT22;13760;52.588;13.406;2023-04-25T02:33:40;8.60;99.90
25963;DHT22;13760;52.588;13.406;2023-04-25T02:36:06;8.60;99.90
25963;DHT22;13760;52.588;13.406;2023-04-25T02:38:32;8.60;99.90
25963;DHT22;13760;52.588;13.406;2023-04-25T02:40:57;8.60;99.90
25963;DHT22;13760;52.588;13.406;2023-04-25T02:43:23;8.60;99.90
25963;DHT22;13760;52.588;13.406;2023-04-25T02:45:49;8.60;99.90
25963;DHT22;13760;52.588;13.406;2023-04-25T02:48:14;8.60;99.90
25963;DHT22;13760;52.588;13.406;2023-04-25T02:50:40;8.60;99.90
25963;DHT22;13760;52.588;13.406;2023-04-25T02:53:05;8.60;99.90
25963;DHT22;13760;52.588;13.406;2023-04-25T02:55:31;8.60;99.90
25963;DHT22;13760;52.588;13.406;2023-04-25T02:57:56;8.60;99.90
25963;DHT22;13760;52.588;13.406;2023-04-25T03:00:22;8.60;99.90
25963;DHT22;13760;52.588;13.406;2023-04-25T03:02:48;8.60;99.90
25963;DHT22;13760;52.588;13.406;2023-04-25T03:05:13;8.60;99.90
25963;DHT22;13760;52.588;13.406;2023-04-25T03:07:39;8.60;99.90
25963;DHT22;13760;52.588;13.406;2023-04-25T03:10:06;8.60;99.90
25963;DHT22;13760;52.588;13.406;2023-04-25T03:12:32;8.60;99.90
25963;DHT22;13760;52.588;13.406;2023-04-25T03:14:58;8.60;99.90
25963;DHT22;13760;52.588;13.406;2023-04-25T03:17:23;8.60;99.90
25963;DHT22;13760;52.588;13.406;2023-04-25T03:19:49;8.60;99.90
25963;DHT22;13760;52.588;13.406;2023-04-25T03:22:14;8.60;99.90
25963;DHT22;13760;52.588;13.406;2023-04-25T03:24:40;8.60;99.90
25963;DHT22;13760;52.588;13.406;2023-04-25T03:27:05;8.70;99.90
25963;DHT22;13760;52.588;13.406;2023-04-25T03:29:31;8.70;99.90
25963;DHT22;13760;52.588;13.406;2023-04-25T03:31:57;8.60;99.90
25963;DHT22;13760;52.588;13.406;2023-04-25T03:34:22;8.60;99.90
25963;DHT22;13760;52.588;13.406;2023-04-25T03:36:49;8.60;99.90
25963;DHT22;13760;52.588;13.406;2023-04-25T03:39:15;8.60;99.90
25963;DHT22;13760;52.588;13.406;2023-04-25T03:41:41;8.60;99.90
25963;DHT22;13760;52.588;13.406;2023-04-25T03:44:06;8.50;99.90
25963;DHT22;13760;52.588;13.406;2023-04-25T03:46:32;8.60;99.90
25963;DHT22;13760;52.588;13.406;2023-04-25T03:48:57;8.60;99.90
25963;DHT22;13760;52.588;13.406;2023-04-25T03:51:24;8.60;99.90
25963;DHT22;13760;52.588;13.406;2023-04-25T03:53:52;8.60;99.90
25963;DHT22;13760;52.588;13.406;2023-04-25T03:56:18;8.60;99.90
25963;DHT22;13760;52.588;13.406;2023-04-25T03:58:43;8.50;99.90
25963;DHT22;13760;52.588;13.406;2023-04-25T04:01:09;8.60;99.90
25963;DHT22;13760;52.588;13.406;2023-04-25T04:03:35;8.60;99.90
25963;DHT22;13760;52.588;13.406;2023-04-25T04:06:05;8.50;99.90
25963;DHT22;13760;52.588;13.406;2023-04-25T04:08:31;8.50;99.90
25963;DHT22;13760;52.588;13.406;2023-04-25T04:10:58;8.50;99.90
25963;DHT22;13760;52.588;13.406;2023-04-25T04:13:26;8.50;99.90
25963;DHT22;13760;52.588;13.406;2023-04-25T04:15:52;8.50;99.90
25963;DHT22;13760;52.588;13.406;2023-04-25T04:18:18;8.50;99.90
25963;DHT22;13760;52.588;13.406;2023-04-25T04:20:43;8.60;99.90
25963;DHT22;13760;52.588;13.406;2023-04-25T04:23:09;8.60;99.90
25963;DHT22;13760;52.588;13.406;2023-04-25T04:25:34;8.60;99.90
25963;DHT22;13760;52.588;13.406;2023-04-25T04:28:00;8.60;99.90
25963;DHT22;13760;52.588;13.406;2023-04-25T04:30:26;8.60;99.90
25963;DHT22;13760;52.588;13.406;2023-04-25T04:32:55;8.60;99.90
25963;DHT22;13760;52.588;13.406;2023-04-25T04:35:22;8.50;99.90
25963;DHT22;13760;52.588;13.406;2023-04-25T04:37:48;8.60;99.90
25963;DHT22;13760;52.588;13.406;2023-04-25T04:40:14;8.50;99.90
25963;DHT22;13760;52.588;13.406;2023-04-25T04:42:41;8.60;99.90
25963;DHT22;13760;52.588;13.406;2023-04-25T04:45:08;8.60;99.90
25963;DHT22;13760;52.588;13.406;2023-04-25T04:47:34;8.60;99.90
25963;DHT22;13760;52.588;13.406;2023-04-25T04:50:11;8.60;99.90
25963;DHT22;13760;52.588;13.406;2023-04-25T04:52:37;8.60;99.90
25963;DHT22;13760;52.588;13.406;2023-04-25T04:55:04;8.60;99.90
25963;DHT22;13760;52.588;13.406;2023-04-25T04:57:30;8.60;99.90
25963;DHT22;13760;52.588;13.406;2023-04-25T04:59:56;8.60;99.90
25963;DHT22;13760;52.588;13.406;2023-04-25T05:02:22;8.60;99.90
25963;DHT22;13760;52.588;13.406;2023-04-25T05:04:48;8.70;99.90
25963;DHT22;13760;52.588;13.406;2023-04-25T05:07:13;8.70;99.90
25963;DHT22;13760;52.588;13.406;2023-04-25T05:09:39;8.70;99.90
25963;DHT22;13760;52.588;13.406;2023-04-25T05:12:04;8.70;99.90
25963;DHT22;13760;52.588;13.406;2023-04-25T05:14:30;8.70;99.90
25963;DHT22;13760;52.588;13.406;2023-04-25T05:16:56;8.70;99.90
25963;DHT22;13760;52.588;13.406;2023-04-25T05:19:21;8.70;99.90
25963;DHT22;13760;52.588;13.406;2023-04-25T05:21:47;8.70;99.90
25963;DHT22;13760;52.588;13.406;2023-04-25T05:24:12;8.80;99.90
25963;DHT22;13760;52.588;13.406;2023-04-25T05:26:38;8.80;99.90
25963;DHT22;13760;52.588;13.406;2023-04-25T05:29:03;8.70;99.90
25963;DHT22;13760;52.588;13.406;2023-04-25T05:31:33;8.80;99.90
25963;DHT22;13760;52.588;13.406;2023-04-25T05:33:59;8.80;99.90
25963;DHT22;13760;52.588;13.406;2023-04-25T05:36:25;8.80;99.90
25963;DHT22;13760;52.588;13.406;2023-04-25T05:38:51;8.80;99.90
25963;DHT22;13760;52.588;13.406;2023-04-25T05:41:16;8.80;99.90
25963;DHT22;13760;52.588;13.406;2023-04-25T05:43:42;8.90;99.90
25963;DHT22;13760;52.588;13.406;2023-04-25T05:46:12;8.80;99.90
25963;DHT22;13760;52.588;13.406;2023-04-25T05:48:39;8.80;99.90
25963;DHT22;13760;52.588;13.406;2023-04-25T05:51:04;8.80;99.90
25963;DHT22;13760;52.588;13.406;2023-04-25T05:53:30;8.80;99.90
25963;DHT22;13760;52.588;13.406;2023-04-25T05:55:56;8.80;99.90
25963;DHT22;13760;52.588;13.406;2023-04-25T05:58:21;8.80;99.90
25963;DHT22;13760;52.588;13.406;2023-04-25T06:00:47;8.90;99.90
25963;DHT22;13760;52.588;13.406;2023-04-25T06:03:13;8.90;99.90
25963;DHT22;13760;52.588;13.406;2023-04-25T06:05:42;8.90;99.90
25963;DHT22;13760;52.588;13.406;2023-04-25T06:08:08;8.90;99.90
25963;DHT22;13760;52.588;13.406;2023-04-25T06:10:34;8.90;99.90
25963;DHT22;13760;52.588;13.406;2023-04-25T06:12:59;8.90;99.90
25963;DHT22;13760;52.588;13.406;2023-04-25T06:15:30;8.90;99.90
25963;DHT22;13760;52.588;13.406;2023-04-25T06:17:58;8.90;99.90
25963;DHT22;13760;52.588;13.406;2023-04-25T06:20:26;9.00;99.90
25963;DHT22;13760;52.588;13.406;2023-04-25T06:22:52;9.00;99.90
25963;DHT22;13760;52.588;13.406;2023-04-25T06:25:26;9.00;99.90
25963;DHT22;13760;52.588;13.406;2023-04-25T06:27:52;9.10;99.90
25963;DHT22;13760;52.588;13.406;2023-04-25T06:30:18;9.10;99.90
25963;DHT22;13760;52.588;13.406;2023-04-25T06:32:47;9.10;99.90
25963;DHT22;13760;52.588;13.406;2023-04-25T06:35:13;9.10;99.90
25963;DHT22;13760;52.588;13.406;2023-04-25T06:37:39;9.10;99.90
25963;DHT22;13760;52.588;13.406;2023-04-25T06:40:08;9.10;99.90
25963;DHT22;13760;52.588;13.406;2023-04-25T06:43:00;9.10;99.90
25963;DHT22;13760;52.588;13.406;2023-04-25T06:46:11;9.10;99.90
25963;DHT22;13760;52.588;13.406;2023-04-25T06:48:40;9.00;99.90
25963;DHT22;13760;52.588;13.406;2023-04-25T06:54:33;9.00;99.90
25963;DHT22;13760;52.588;13.406;2023-04-25T06:57:14;9.00;99.90
25963;DHT22;13760;52.588;13.406;2023-04-25T06:59:48;9.00;99.90
25963;DHT22;13760;52.588;13.406;2023-04-25T07:02:17;9.00;99.90
25963;DHT22;13760;52.588;13.406;2023-04-25T07:04:42;9.00;99.90
25963;DHT22;13760;52.588;13.406;2023-04-25T07:07:08;9.00;99.90
25963;DHT22;13760;52.588;13.406;2023-04-25T07:09:36;8.90;99.90
25963;DHT22;13760;52.588;13.406;2023-04-25T07:12:02;9.00;99.90
25963;DHT22;13760;52.588;13.406;2023-04-25T07:14:28;8.90;99.90
25963;DHT22;13760;52.588;13.406;2023-04-25T07:16:53;8.90;99.90
25963;DHT22;13760;52.588;13.406;2023-04-25T07:19:21;8.90;99.90
25963;DHT22;13760;52.588;13.406;2023-04-25T07:21:46;8.90;99.90
25963;DHT22;13760;52.588;13.406;2023-04-25T07:24:12;8.90;99.90
25963;DHT22;13760;52.588;13.406;2023-04-25T07:26:37;8.90;99.90
25963;DHT22;13760;52.588;13.406;2023-04-25T07:29:03;8.90;99.90
25963;DHT22;13760;52.588;13.406;2023-04-25T07:31:29;9.00;99.90
25963;DHT22;13760;52.588;13.406;2023-04-25T07:33:54;9.00;99.90
25963;DHT22;13760;52.588;13.406;2023-04-25T07:36:20;9.00;99.90
25963;DHT22;13760;52.588;13.406;2023-04-25T07:38:46;9.00;99.90
25963;DHT22;13760;52.588;13.406;2023-04-25T07:41:14;9.00;99.90
25963;DHT22;13760;52.588;13.406;2023-04-25T07:43:40;9.00;99.90
25963;DHT22;13760;52.588;13.406;2023-04-25T07:46:08;9.00;99.90
25963;DHT22;13760;52.588;13.406;2023-04-25T07:48:35;9.00;99.90
25963;DHT22;13760;52.588;13.406;2023-04-25T07:51:03;9.10;99.90
25963;DHT22;13760;52.588;13.406;2023-04-25T07:53:32;9.10;99.90
25963;DHT22;13760;52.588;13.406;2023-04-25T07:56:01;9.20;99.90
25963;DHT22;13760;52.588;13.406;2023-04-25T07:58:26;9.40;99.90
25963;DHT22;13760;52.588;13.406;2023-04-25T08:00:52;9.50;99.90
25963;DHT22;13760;52.588;13.406;2023-04-25T08:03:17;9.50;99.90
25963;DHT22;13760;52.588;13.406;2023-04-25T08:05:43;9.50;99.90
25963;DHT22;13760;52.588;13.406;2023-04-25T08:08:08;9.60;99.90
25963;DHT22;13760;52.588;13.406;2023-04-25T08:10:34;9.70;99.90
25963;DHT22;13760;52.588;13.406;2023-04-25T08:13:00;9.90;99.90
25963;DHT22;13760;52.588;13.406;2023-04-25T08:15:25;9.90;99.90
25963;DHT22;13760;52.588;13.406;2023-04-25T08:17:51;10.00;99.90
25963;DHT22;13760;52.588;13.406;2023-04-25T08:20:17;9.90;99.90
25963;DHT22;13760;52.588;13.406;2023-04-25T08:22:43;9.80;99.90
25963;DHT22;13760;52.588;13.406;2023-04-25T08:25:08;9.80;99.90
25963;DHT22;13760;52.588;13.406;2023-04-25T08:27:34;9.90;99.90
25963;DHT22;13760;52.588;13.406;2023-04-25T08:30:03;9.90;99.90
25963;DHT22;13760;52.588;13.406;2023-04-25T08:32:29;10.00;99.90
25963;DHT22;13760;52.588;13.406;2023-04-25T08:34:54;10.00;99.90
25963;DHT22;13760;52.588;13.406;2023-04-25T08:37:21;10.00;99.90
25963;DHT22;13760;52.588;13.406;2023-04-25T08:39:47;10.00;99.90
25963;DHT22;13760;52.588;13.406;2023-04-25T08:42:17;10.00;99.90
25963;DHT22;13760;52.588;13.406;2023-04-25T08:44:45;10.00;99.90
25963;DHT22;13760;52.588;13.406;2023-04-25T08:47:11;10.00;99.90
25963;DHT22;13760;52.588;13.406;2023-04-25T08:49:38;10.10;99.90
25963;DHT22;13760;52.588;13.406;2023-04-25T08:52:06;10.40;99.90
25963;DHT22;13760;52.588;13.406;2023-04-25T08:54:32;10.90;99.90
25963;DHT22;13760;52.588;13.406;2023-04-25T08:57:01;11.30;99.90
25963;DHT22;13760;52.588;13.406;2023-04-25T08:59:28;11.70;99.90
25963;DHT22;13760;52.588;13.406;2023-04-25T09:01:55;11.80;99.90
25963;DHT22;13760;52.588;13.406;2023-04-25T09:04:23;11.80;99.90
25963;DHT22;13760;52.588;13.406;2023-04-25T09:06:53;11.80;99.90
25963;DHT22;13760;52.588;13.406;2023-04-25T09:09:21;11.90;99.90
25963;DHT22;13760;52.588;13.406;2023-04-25T09:11:47;12.00;99.90
25963;DHT22;13760;52.588;13.406;2023-04-25T09:14:20;12.10;99.90
25963;DHT22;13760;52.588;13.406;2023-04-25T09:17:05;12.20;99.90
25963;DHT22;13760;52.588;13.406;2023-04-25T09:19:34;11.90;99.90
25963;DHT22;13760;52.588;13.406;2023-04-25T09:22:03;11.90;99.90
25963;DHT22;13760;52.588;13.406;2023-04-25T09:24:40;12.00;99.90
25963;DHT22;13760;52.588;13.406;2023-04-25T09:27:07;12.20;99.90
25963;DHT22;13760;52.588;13.406;2023-04-25T09:29:35;12.40;99.90
25963;DHT22;13760;52.588;13.406;2023-04-25T09:32:19;12.80;99.90
25963;DHT22;13760;52.588;13.406;2023-04-25T09:34:51;12.90;99.90
25963;DHT22;13760;52.588;13.406;2023-04-25T09:37:18;13.00;99.90
25963;DHT22;13760;52.588;13.406;2023-04-25T09:39:45;13.00;99.90
25963;DHT22;13760;52.588;13.406;2023-04-25T09:42:14;13.20;99.90
25963;DHT22;13760;52.588;13.406;2023-04-25T09:44:47;13.40;99.90
25963;DHT22;13760;52.588;13.406;2023-04-25T09:47:14;13.60;99.50
25963;DHT22;13760;52.588;13.406;2023-04-25T09:49:42;13.30;98.70
25963;DHT22;13760;52.588;13.406;2023-04-25T09:52:12;13.10;98.20
25963;DHT22;13760;52.588;13.406;2023-04-25T09:54:41;12.80;97.60
25963;DHT22;13760;52.588;13.406;2023-04-25T09:57:21;12.70;98.80
25963;DHT22;13760;52.588;13.406;2023-04-25T09:59:52;12.80;99.30
25963;DHT22;13760;52.588;13.406;2023-04-25T10:02:20;12.70;98.30
25963;DHT22;13760;52.588;13.406;2023-04-25T10:04:49;12.70;96.20
25963;DHT22;13760;52.588;13.406;2023-04-25T10:07:16;12.80;98.20
25963;DHT22;13760;52.588;13.406;2023-04-25T10:09:44;13.10;97.40
25963;DHT22;13760;52.588;13.406;2023-04-25T10:12:12;13.20;96.40
25963;DHT22;13760;52.588;13.406;2023-04-25T10:14:38;13.20;95.40
25963;DHT22;13760;52.588;13.406;2023-04-25T10:17:04;13.10;94.00
25963;DHT22;13760;52.588;13.406;2023-04-25T10:19:30;13.10;97.30
25963;DHT22;13760;52.588;13.406;2023-04-25T10:22:14;13.00;96.80
25963;DHT22;13760;52.588;13.406;2023-04-25T10:24:42;12.90;94.60
25963;DHT22;13760;52.588;13.406;2023-04-25T10:27:09;12.70;94.20
25963;DHT22;13760;52.588;13.406;2023-04-25T10:29:35;12.60;93.50
25963;DHT22;13760;52.588;13.406;2023-04-25T10:32:01;12.50;96.50
25963;DHT22;13760;52.588;13.406;2023-04-25T10:34:44;12.30;95.80
25963;DHT22;13760;52.588;13.406;2023-04-25T10:37:13;12.20;95.90
25963;DHT22;13760;52.588;13.406;2023-04-25T10:39:40;12.20;95.70
25963;DHT22;13760;52.588;13.406;2023-04-25T10:42:09;12.20;94.90
25963;DHT22;13760;52.588;13.406;2023-04-25T10:44:37;12.30;94.80
25963;DHT22;13760;52.588;13.406;2023-04-25T10:47:03;12.10;94.90
25963;DHT22;13760;52.588;13.406;2023-04-25T10:52:24;12.10;95.30
25963;DHT22;13760;52.588;13.406;2023-04-25T10:54:56;12.00;93.00
25963;DHT22;13760;52.588;13.406;2023-04-25T10:57:41;12.10;93.50
25963;DHT22;13760;52.588;13.406;2023-04-25T11:00:17;12.10;93.70
25963;DHT22;13760;52.588;13.406;2023-04-25T11:02:53;12.30;95.40
25963;DHT22;13760;52.588;13.406;2023-04-25T11:07:54;12.40;93.40
25963;DHT22;13760;52.588;13.406;2023-04-25T11:10:28;12.40;92.80
25963;DHT22;13760;52.588;13.406;2023-04-25T11:12:53;12.10;93.00
25963;DHT22;13760;52.588;13.406;2023-04-25T11:15:19;12.00;94.10
25963;DHT22;13760;52.588;13.406;2023-04-25T11:17:44;11.60;92.50
25963;DHT22;13760;52.588;13.406;2023-04-25T11:20:12;11.30;93.60
25963;DHT22;13760;52.588;13.406;2023-04-25T11:22:40;11.20;94.50
25963;DHT22;13760;52.588;13.406;2023-04-25T11:25:10;11.20;94.40
25963;DHT22;13760;52.588;13.406;2023-04-25T11:27:56;11.30;94.00
25963;DHT22;13760;52.588;13.406;2023-04-25T11:30:23;11.30;92.90
25963;DHT22;13760;52.588;13.406;2023-04-25T11:32:49;11.10;91.90
25963;DHT22;13760;52.588;13.406;2023-04-25T11:35:15;11.20;93.30
25963;DHT22;13760;52.588;13.406;2023-04-25T11:37:42;11.30;92.00
25963;DHT22;13760;52.588;13.406;2023-04-25T11:40:09;11.40;92.90
25963;DHT22;13760;52.588;13.406;2023-04-25T11:42:38;11.50;92.30
25963;DHT22;13760;52.588;13.406;2023-04-25T11:45:05;11.60;90.80
25963;DHT22;13760;52.588;13.406;2023-04-25T11:47:31;11.60;92.10
25963;DHT22;13760;52.588;13.406;2023-04-25T11:50:01;11.80;92.30
25963;DHT22;13760;52.588;13.406;2023-04-25T11:52:47;11.80;91.80
25963;DHT22;13760;52.588;13.406;2023-04-25T11:55:14;11.90;91.60
25963;DHT22;13760;52.588;13.406;2023-04-25T11:57:41;11.90;92.00
25963;DHT22;13760;52.588;13.406;2023-04-25T12:00:14;11.80;91.50
25963;DHT22;13760;52.588;13.406;2023-04-25T12:02:44;11.90;92.50
25963;DHT22;13760;52.588;13.406;2023-04-25T12:05:11;12.00;92.40
25963;DHT22;13760;52.588;13.406;2023-04-25T12:07:37;12.00;92.00
25963;DHT22;13760;52.588;13.406;2023-04-25T12:10:14;12.10;92.40
25963;DHT22;13760;52.588;13.406;2023-04-25T12:12:46;12.10;91.40
25963;DHT22;13760;52.588;13.406;2023-04-25T12:15:17;12.20;90.00
25963;DHT22;13760;52.588;13.406;2023-04-25T12:17:49;12.20;91.70
25963;DHT22;13760;52.588;13.406;2023-04-25T12:20:16;12.20;92.80
25963;DHT22;13760;52.588;13.406;2023-04-25T12:22:44;12.10;90.80
25963;DHT22;13760;52.588;13.406;2023-04-25T12:25:11;12.10;90.60
25963;DHT22;13760;52.588;13.406;2023-04-25T12:27:38;12.20;90.40
25963;DHT22;13760;52.588;13.406;2023-04-25T12:30:07;12.30;90.60
25963;DHT22;13760;52.588;13.406;2023-04-25T12:32:33;12.50;91.50
25963;DHT22;13760;52.588;13.406;2023-04-25T12:34:59;12.60;88.70
25963;DHT22;13760;52.588;13.406;2023-04-25T12:37:24;12.60;89.10
25963;DHT22;13760;52.588;13.406;2023-04-25T12:39:50;12.70;90.40
25963;DHT22;13760;52.588;13.406;2023-04-25T12:42:16;12.60;89.90
25963;DHT22;13760;52.588;13.406;2023-04-25T12:44:41;12.30;89.50
25963;DHT22;13760;52.588;13.406;2023-04-25T12:47:07;12.20;91.00
25963;DHT22;13760;52.588;13.406;2023-04-25T12:49:32;12.00;90.00
25963;DHT22;13760;52.588;13.406;2023-04-25T12:51:58;11.80;91.40
25963;DHT22;13760;52.588;13.406;2023-04-25T12:54:24;11.90;91.80
25963;DHT22;13760;52.588;13.406;2023-04-25T12:56:50;11.90;90.90
25963;DHT22;13760;52.588;13.406;2023-04-25T12:59:16;12.00;91.20
25963;DHT22;13760;52.588;13.406;2023-04-25T13:01:42;12.10;90.50
25963;DHT22;13760;52.588;13.406;2023-04-25T13:04:08;12.00;90.00
25963;DHT22;13760;52.588;13.406;2023-04-25T13:06:33;12.10;88.90
25963;DHT22;13760;52.588;13.406;2023-04-25T13:08:59;12.50;90.50
25963;DHT22;13760;52.588;13.406;2023-04-25T13:11:25;13.10;90.40
25963;DHT22;13760;52.588;13.406;2023-04-25T13:13:51;13.40;88.40
25963;DHT22;13760;52.588;13.406;2023-04-25T13:16:16;13.20;85.80
25963;DHT22;13760;52.588;13.406;2023-04-25T13:18:44;12.90;82.70
25963;DHT22;13760;52.588;13.406;2023-04-25T13:21:10;12.80;84.50
25963;DHT22;13760;52.588;13.406;2023-04-25T13:23:37;12.60;85.60
25963;DHT22;13760;52.588;13.406;2023-04-25T13:26:02;12.40;86.70
25963;DHT22;13760;52.588;13.406;2023-04-25T13:28:28;12.20;88.70
25963;DHT22;13760;52.588;13.406;2023-04-25T13:30:54;12.00;88.80
25963;DHT22;13760;52.588;13.406;2023-04-25T13:33:20;11.80;89.80
25963;DHT22;13760;52.588;13.406;2023-04-25T13:35:47;11.40;89.40
25963;DHT22;13760;52.588;13.406;2023-04-25T13:38:19;11.20;90.60
25963;DHT22;13760;52.588;13.406;2023-04-25T13:40:45;11.10;91.00
25963;DHT22;13760;52.588;13.406;2023-04-25T13:43:10;11.10;92.50
25963;DHT22;13760;52.588;13.406;2023-04-25T13:45:36;11.10;92.10
25963;DHT22;13760;52.588;13.406;2023-04-25T13:48:02;11.10;92.90
25963;DHT22;13760;52.588;13.406;2023-04-25T13:50:54;11.20;92.60
25963;DHT22;13760;52.588;13.406;2023-04-25T13:53:20;11.00;92.40
25963;DHT22;13760;52.588;13.406;2023-04-25T13:55:46;11.10;92.90
25963;DHT22;13760;52.588;13.406;2023-04-25T13:58:11;11.20;93.00
25963;DHT22;13760;52.588;13.406;2023-04-25T14:00:38;11.40;92.70
25963;DHT22;13760;52.588;13.406;2023-04-25T14:03:04;11.50;92.20
25963;DHT22;13760;52.588;13.406;2023-04-25T14:05:32;11.70;91.40
25963;DHT22;13760;52.588;13.406;2023-04-25T14:08:00;11.90;91.20
25963;DHT22;13760;52.588;13.406;2023-04-25T14:10:25;11.90;91.70
25963;DHT22;13760;52.588;13.406;2023-04-25T14:12:51;11.90;91.70
25963;DHT22;13760;52.588;13.406;2023-04-25T14:15:16;11.90;91.30
25963;DHT22;13760;52.588;13.406;2023-04-25T14:17:42;11.90;91.00
25963;DHT22;13760;52.588;13.406;2023-04-25T14:20:08;11.80;91.00
25963;DHT22;13760;52.588;13.406;2023-04-25T14:22:34;11.80;91.90
25963;DHT22;13760;52.588;13.406;2023-04-25T14:25:00;11.70;91.10
25963;DHT22;13760;52.588;13.406;2023-04-25T14:27:25;11.60;92.30
25963;DHT22;13760;52.588;13.406;2023-04-25T14:29:51;11.60;92.30
25963;DHT22;13760;52.588;13.406;2023-04-25T14:32:17;11.60;93.50
25963;DHT22;13760;52.588;13.406;2023-04-25T14:34:43;11.50;92.30
25963;DHT22;13760;52.588;13.406;2023-04-25T14:37:09;11.40;92.20
25963;DHT22;13760;52.588;13.406;2023-04-25T14:39:34;11.30;92.90
25963;DHT22;13760;52.588;13.406;2023-04-25T14:42:03;11.20;93.00
25963;DHT22;13760;52.588;13.406;2023-04-25T14:44:29;11.20;92.70
25963;DHT22;13760;52.588;13.406;2023-04-25T14:46:57;11.20;93.50
25963;DHT22;13760;52.588;13.406;2023-04-25T14:49:23;11.20;93.60
25963;DHT22;13760;52.588;13.406;2023-04-25T14:51:48;11.20;93.60
25963;DHT22;13760;52.588;13.406;2023-04-25T14:54:15;11.20;94.20
25963;DHT22;13760;52.588;13.406;2023-04-25T14:56:41;11.10;94.80
25963;DHT22;13760;52.588;13.406;2023-04-25T14:59:09;11.00;94.90
25963;DHT22;13760;52.588;13.406;2023-04-25T15:01:35;10.80;94.60
25963;DHT22;13760;52.588;13.406;2023-04-25T15:04:03;10.70;94.80
25963;DHT22;13760;52.588;13.406;2023-04-25T15:06:29;10.60;94.40
25963;DHT22;13760;52.588;13.406;2023-04-25T15:08:55;10.40;94.70
25963;DHT22;13760;52.588;13.406;2023-04-25T15:11:22;10.30;94.40
25963;DHT22;13760;52.588;13.406;2023-04-25T15:13:48;10.20;95.00
25963;DHT22;13760;52.588;13.406;2023-04-25T15:16:14;10.30;95.50
25963;DHT22;13760;52.588;13.406;2023-04-25T15:18:39;10.30;95.00
25963;DHT22;13760;52.588;13.406;2023-04-25T15:21:05;10.30;94.50
25963;DHT22;13760;52.588;13.406;2023-04-25T15:23:31;10.40;95.00
25963;DHT22;13760;52.588;13.406;2023-04-25T15:25:57;10.50;94.60
25963;DHT22;13760;52.588;13.406;2023-04-25T15:28:22;10.60;94.60
25963;DHT22;13760;52.588;13.406;2023-04-25T15:30:48;10.60;94.00
25963;DHT22;13760;52.588;13.406;2023-04-25T15:33:13;10.60;93.60
25963;DHT22;13760;52.588;13.406;2023-04-25T15:35:40;10.60;93.60